Time;durP1;ratioP1;P1;durP2;ratioP2;P2;SDS_P1;SDS_P2;PMS_P1;PMS_P2;Temp;Humidity;BMP_temperature;BMP_pressure;BME280_temperature;BME280_humidity;BME280_pressure;Samples;Min_cycle;Max_cycle;Signal;HPM_P1;HPM_P2
2021/01/12 00:01:07;;;;;;;;;;;;;;;-1.96;92.04;101603.08;1867562;77;20123;-40
2021/01/12 00:03:35;;;;;;;;;;;;;;;-1.96;91.97;101598.34;1867283;77;20182;-40
2021/01/12 00:06:02;;;;;;;;;;;;;;;-1.98;91.87;101599.98;1867324;77;20193;-40
2021/01/12 00:08:30;;;;;;;;;;;;;;;-1.99;91.79;101595.64;1867394;77;20139;-39
2021/01/12 00:10:59;;;;;;;;;;;;;;;-2.00;91.76;101606.31;1873305;75;20144;-40
2021/01/12 00:13:30;;;;;;;;;;;;;;;-2.01;91.65;101607.13;1902286;75;20223;-40
2021/01/12 00:15:58;;;;;;;;;;;;;;;-2.02;91.57;101611.78;1902516;75;20274;-40
2021/01/12 00:18:26;;;;;;;;;;;;;;;-2.03;91.50;101612.17;1902300;75;20271;-38
2021/01/12 00:20:54;;;;;;;;;;;;;;;-2.03;91.54;101607.04;1902506;75;20386;-39
2021/01/12 00:23:21;;;;;;;;;;;;;;;-2.02;91.55;101607.52;1902772;75;20163;-40
2021/01/12 00:25:49;;;;;;;;;;;;;;;-2.01;91.53;101609.69;1902536;75;20137;-40
2021/01/12 00:28:17;;;;;;;;;;;;;;;-2.03;91.53;101607.44;1902338;75;20140;-40
2021/01/12 00:30:44;;;;;;;;;;;;;;;-2.03;91.51;101604.47;1902337;75;20223;-40
2021/01/12 00:33:12;;;;;;;;;;;;;;;-2.03;91.47;101612.58;1902353;75;20196;-39
2021/01/12 00:35:40;;;;;;;;;;;;;;;-2.02;91.54;101610.48;1902311;75;20274;-39
2021/01/12 00:38:08;;;;;;;;;;;;;;;-2.02;91.51;101608.80;1902456;75;20128;-38
2021/01/12 00:40:36;;;;;;;;;;;;;;;-2.01;91.50;101610.58;1902437;75;20346;-39
2021/01/12 00:43:04;;;;;;;;;;;;;;;-2.02;91.46;101608.80;1902561;75;20224;-39
2021/01/12 00:45:33;;;;;;;;;;;;;;;-2.01;91.54;101610.97;1902578;75;20386;-39
2021/01/12 00:48:00;;;;;;;;;;;;;;;-2.01;91.66;101613.14;1902242;75;20223;-41
2021/01/12 00:50:29;;;;;;;;;;;;;;;-2.03;91.73;101608.33;1902461;75;20183;-39
2021/01/12 00:52:57;;;;;;;;;;;;;;;-2.03;91.77;101615.14;1902710;75;20171;-40
2021/01/12 00:55:25;;;;;;;;;;;;;;;-2.03;91.87;101611.30;1902586;75;20175;-38
2021/01/12 00:57:53;;;;;;;;;;;;;;;-2.03;91.96;101610.89;1902521;75;20176;-39
2021/01/12 01:00:23;;;;;;;;;;;;;;;-2.03;91.95;101610.01;1902296;75;20120;-37
2021/01/12 01:02:51;;;;;;;;;;;;;;;-2.02;91.95;101613.95;1902463;75;20171;-39
2021/01/12 01:05:19;;;;;;;;;;;;;;;-2.03;91.94;101610.89;1902205;75;20223;-39
2021/01/12 01:07:47;;;;;;;;;;;;;;;-2.03;91.94;101603.19;1902305;75;20147;-39
2021/01/12 01:10:15;;;;;;;;;;;;;;;-2.02;91.91;101604.06;1902248;75;20421;-39
2021/01/12 01:12:43;;;;;;;;;;;;;;;-2.04;91.88;101592.46;1890059;75;20150;-40
2021/01/12 01:15:12;;;;;;;;;;;;;;;-2.02;91.85;101594.67;1876372;75;20120;-39
2021/01/12 01:17:40;;;;;;;;;;;;;;;-2.02;91.79;101591.22;1893501;75;20167;-41
2021/01/12 01:20:10;;;;;;;;;;;;;;;-2.03;91.76;101589.45;1881136;75;20141;-39
2021/01/12 01:22:38;;;;;;;;;;;;;;;-2.02;91.71;101588.25;1867332;77;20182;-39
2021/01/12 01:25:08;;;;;;;;;;;;;;;-2.02;91.72;101587.37;1867236;77;20304;-39
2021/01/12 01:27:36;;;;;;;;;;;;;;;-2.03;91.64;101585.20;1867312;77;20190;-40
2021/01/12 01:30:06;;;;;;;;;;;;;;;-2.03;91.59;101585.20;1867342;77;20403;-39
2021/01/12 01:32:33;;;;;;;;;;;;;;;-2.02;91.55;101587.37;1867468;77;20135;-39
2021/01/12 01:35:03;;;;;;;;;;;;;;;-2.03;91.55;101586.48;1871397;75;20839;-41
2021/01/12 01:37:36;;;;;;;;;;;;;;;-2.03;91.60;101581.34;1867299;77;20158;-40
2021/01/12 01:40:05;;;;;;;;;;;;;;;-2.02;91.69;101583.12;1867404;77;20458;-38
2021/01/12 01:42:35;;;;;;;;;;;;;;;-2.02;91.90;101583.52;1834797;77;20154;-38
2021/01/12 01:45:07;;;;;;;;;;;;;;;-2.02;92.05;101587.37;1867394;77;20158;-40
2021/01/12 01:47:35;;;;;;;;;;;;;;;-2.04;92.19;101586.04;1835267;77;20237;-39
2021/01/12 01:50:04;;;;;;;;;;;;;;;-2.06;92.26;101587.64;1867068;77;20177;-37
2021/01/12 01:52:32;;;;;;;;;;;;;;;-2.07;92.34;101585.87;1867453;77;20186;-39
2021/01/12 01:54:59;;;;;;;;;;;;;;;-2.09;92.40;101587.48;1867193;77;20173;-39
2021/01/12 01:57:27;;;;;;;;;;;;;;;-2.11;92.52;101592.97;1867295;77;20190;-39
2021/01/12 01:59:55;;;;;;;;;;;;;;;-2.13;92.63;101594.57;1866944;77;20126;-39
2021/01/12 02:02:23;;;;;;;;;;;;;;;-2.15;92.70;101590.16;1867129;77;20174;-40
2021/01/12 02:04:51;;;;;;;;;;;;;;;-2.15;92.73;101580.77;1867292;77;20123;-41
2021/01/12 02:07:20;;;;;;;;;;;;;;;-2.16;92.79;101581.56;1867159;77;20380;-40
2021/01/12 02:09:49;;;;;;;;;;;;;;;-2.15;92.86;101583.33;1867422;77;20400;-39
2021/01/12 02:12:30;;;;;;;;;;;;;;;-2.15;92.88;101580.77;1867197;77;20518;-40
2021/01/12 02:15:24;;;;;;;;;;;;;;;-2.13;92.98;101585.58;1905414;74;20138;-39
2021/01/12 02:17:51;;;;;;;;;;;;;;;-2.19;93.08;101587.86;1874865;75;20120;-38
2021/01/12 02:20:22;;;;;;;;;;;;;;;-2.20;93.21;101596.36;1891050;75;20151;-40
2021/01/12 02:26:49;;;;;;;;;;;;;;;-2.15;93.48;101591.04;1912026;74;20233;-38
2021/01/12 02:29:17;;;;;;;;;;;;;;;-2.19;93.51;101603.66;1884801;75;20168;-39
2021/01/12 02:31:45;;;;;;;;;;;;;;;-2.20;93.56;101601.90;1903411;75;20172;-39
2021/01/12 02:34:16;;;;;;;;;;;;;;;-2.20;93.62;101609.60;1902963;75;20286;-40
2021/01/12 02:36:44;;;;;;;;;;;;;;;-2.23;93.52;101606.91;1903339;75;20124;-39
2021/01/12 02:39:12;;;;;;;;;;;;;;;-2.25;93.44;101604.66;1869054;75;20243;-40
2021/01/12 02:41:40;;;;;;;;;;;;;;;-2.26;93.39;101601.60;1903166;75;20164;-38
2021/01/12 02:44:21;;;;;;;;;;;;;;;-2.27;93.35;101596.86;1902881;75;20139;-39
2021/01/12 02:46:55;;;;;;;;;;;;;;;-2.28;93.31;101593.81;1902676;75;20124;-39
2021/01/12 02:49:23;;;;;;;;;;;;;;;-2.26;93.30;101599.91;1903273;75;20386;-40
2021/01/12 02:51:51;;;;;;;;;;;;;;;-2.22;93.26;101608.64;1903297;75;20128;-39
2021/01/12 02:54:19;;;;;;;;;;;;;;;-2.20;93.18;101613.05;1903233;75;20132;-39
2021/01/12 02:56:47;;;;;;;;;;;;;;;-2.20;93.03;101619.48;1903244;75;20160;-39
2021/01/12 02:59:15;;;;;;;;;;;;;;;-2.17;92.94;101624.78;1903147;75;20555;-39
2021/01/12 03:01:44;;;;;;;;;;;;;;;-2.18;92.83;101622.12;1902953;75;20290;-39
2021/01/12 03:04:12;;;;;;;;;;;;;;;-2.18;92.72;101616.59;1903102;75;20176;-40
2021/01/12 03:06:40;;;;;;;;;;;;;;;-2.19;92.61;101616.11;1903019;75;20120;-39
2021/01/12 03:09:08;;;;;;;;;;;;;;;-2.20;92.52;101615.63;1903274;75;20172;-39
2021/01/12 03:11:36;;;;;;;;;;;;;;;-2.24;92.51;101614.13;1902970;75;20470;-39
2021/01/12 03:14:03;;;;;;;;;;;;;;;-2.24;92.54;101623.11;1903026;75;20163;-39
2021/01/12 03:16:34;;;;;;;;;;;;;;;-2.25;92.54;101618.78;1903102;75;20270;-39
2021/01/12 03:19:03;;;;;;;;;;;;;;;-2.26;92.50;101614.05;1903159;75;20398;-39
2021/01/12 03:21:32;;;;;;;;;;;;;;;-2.25;92.43;101617.09;1903079;75;20155;-39
2021/01/12 03:23:59;;;;;;;;;;;;;;;-2.25;92.33;101622.63;1903215;75;20132;-38
2021/01/12 03:26:29;;;;;;;;;;;;;;;-2.26;92.15;101615.33;1903150;75;20148;-40
2021/01/12 03:28:57;;;;;;;;;;;;;;;-2.24;92.03;101621.83;1903181;75;20183;-38
2021/01/12 03:31:24;;;;;;;;;;;;;;;-2.24;91.62;101628.25;1902868;75;20301;-40
2021/01/12 03:33:53;;;;;;;;;;;;;;;-2.24;91.22;101627.84;1903156;75;20405;-38
2021/01/12 03:36:21;;;;;;;;;;;;;;;-2.22;91.03;101635.60;1902728;75;20128;-39
2021/01/12 03:38:49;;;;;;;;;;;;;;;-2.21;90.85;101644.67;1902587;75;20120;-40
2021/01/12 03:41:17;;;;;;;;;;;;;;;-2.22;90.83;101641.62;1902315;75;20203;-39
2021/01/12 03:43:44;;;;;;;;;;;;;;;-2.22;90.70;101642.91;1902517;75;20270;-37
2021/01/12 03:46:14;;;;;;;;;;;;;;;-2.23;90.66;101639.00;1902590;75;20171;-39
2021/01/12 03:48:42;;;;;;;;;;;;;;;-2.23;90.75;101646.71;1897541;75;20156;-40
2021/01/12 03:51:10;;;;;;;;;;;;;;;-2.23;90.88;101640.29;1899810;75;20167;-39
2021/01/12 03:53:38;;;;;;;;;;;;;;;-2.24;91.09;101637.23;1900077;75;20461;-39
2021/01/12 03:56:06;;;;;;;;;;;;;;;-2.24;91.31;101629.53;1899894;75;20172;-39
2021/01/12 03:58:36;;;;;;;;;;;;;;;-2.25;91.52;101618.78;1900023;75;20230;-40
2021/01/12 04:01:04;;;;;;;;;;;;;;;-2.24;91.68;101620.55;1899896;75;20421;-39
2021/01/12 04:03:33;;;;;;;;;;;;;;;-2.24;91.85;101626.56;1900311;75;20234;-41
2021/01/12 04:06:02;;;;;;;;;;;;;;;-2.24;91.93;101625.28;1899895;75;20160;-39
2021/01/12 04:08:31;;;;;;;;;;;;;;;-2.24;92.00;101617.58;1900120;75;20277;-39
2021/01/12 04:10:59;;;;;;;;;;;;;;;-2.23;91.99;101614.61;1890346;75;20122;-40
2021/01/12 04:13:27;;;;;;;;;;;;;;;-2.23;91.91;101603.05;1867431;77;20452;-40
2021/01/12 04:15:55;;;;;;;;;;;;;;;-2.23;91.90;101607.75;1867229;77;20240;-39
2021/01/12 04:18:23;;;;;;;;;;;;;;;-2.22;91.83;101604.78;1867533;77;20285;-40
2021/01/12 04:20:51;;;;;;;;;;;;;;;-2.23;91.67;101605.19;1868066;75;20235;-41
2021/01/12 04:23:19;;;;;;;;;;;;;;;-2.24;91.58;101603.45;1867449;77;20245;-40
2021/01/12 04:25:47;;;;;;;;;;;;;;;-2.25;91.50;101603.37;1872875;75;20277;-39
2021/01/12 04:28:15;;;;;;;;;;;;;;;-2.26;91.43;101601.60;1902424;75;20132;-40
2021/01/12 04:30:43;;;;;;;;;;;;;;;-2.28;91.43;101597.66;1902401;75;20168;-40
2021/01/12 04:33:10;;;;;;;;;;;;;;;-2.30;91.50;101592.87;1900375;75;20144;-39
2021/01/12 04:35:38;;;;;;;;;;;;;;;-2.30;91.58;101592.87;1883083;75;20207;-38
2021/01/12 04:38:06;;;;;;;;;;;;;;;-2.30;91.56;101590.31;1867584;77;20168;-38
2021/01/12 04:40:35;;;;;;;;;;;;;;;-2.30;91.50;101588.14;1898894;75;20178;-41
2021/01/12 04:43:03;;;;;;;;;;;;;;;-2.30;91.41;101584.30;1902266;75;20269;-40
2021/01/12 04:45:31;;;;;;;;;;;;;;;-2.30;91.33;101577.88;1859280;75;20455;-40
2021/01/12 04:47:59;;;;;;;;;;;;;;;-2.29;91.25;101572.78;1873128;75;20170;-39
2021/01/12 04:50:27;;;;;;;;;;;;;;;-2.29;91.17;101569.33;1885983;75;20231;-40
2021/01/12 04:52:55;;;;;;;;;;;;;;;-2.29;91.12;101558.66;1873484;75;20274;-39
2021/01/12 04:55:23;;;;;;;;;;;;;;;-2.29;91.10;101558.66;1897386;75;20278;-40
2021/01/12 04:57:52;;;;;;;;;;;;;;;-2.27;91.07;101563.88;1902354;75;20223;-40
2021/01/12 05:00:30;;;;;;;;;;;;;;;-2.28;91.05;101560.43;1902194;75;20120;-40
2021/01/12 05:03:07;;;;;;;;;;;;;;;-2.26;91.03;101563.96;1881298;75;20177;-40
2021/01/12 05:05:38;;;;;;;;;;;;;;;-2.25;90.98;101561.88;1880847;75;20145;-41
2021/01/12 05:08:10;;;;;;;;;;;;;;;-2.25;90.97;101565.73;1855097;75;20184;-40
2021/01/12 05:10:44;;;;;;;;;;;;;;;-2.24;90.96;101566.61;1871095;75;20171;-39
2021/01/12 05:13:12;;;;;;;;;;;;;;;-2.25;90.97;101573.84;1875751;75;20135;-41
2021/01/12 05:15:41;;;;;;;;;;;;;;;-2.27;90.93;101573.75;1872627;75;20156;-41
2021/01/12 05:18:10;;;;;;;;;;;;;;;-2.27;90.95;101566.45;1871824;75;20134;-40
2021/01/12 05:20:43;;;;;;;;;;;;;;;-2.27;91.02;101578.00;1876808;75;20194;-40
2021/01/12 05:23:13;;;;;;;;;;;;;;;-2.26;91.00;101586.19;1875793;75;20154;-42
2021/01/12 05:25:41;;;;;;;;;;;;;;;-2.27;90.91;101588.28;1866984;77;20142;-41
2021/01/12 05:28:11;;;;;;;;;;;;;;;-2.28;90.82;101589.08;1867045;75;20535;-41
2021/01/12 05:30:38;;;;;;;;;;;;;;;-2.28;90.77;101580.09;1870843;75;20222;-40
2021/01/12 05:33:07;;;;;;;;;;;;;;;-2.30;90.72;101585.17;1867238;75;20197;-40
2021/01/12 05:35:37;;;;;;;;;;;;;;;-2.30;90.68;101590.31;1853127;75;20251;-40
2021/01/12 05:38:09;;;;;;;;;;;;;;;-2.29;90.62;101592.05;1870516;75;20166;-41
2021/01/12 05:40:40;;;;;;;;;;;;;;;-2.27;90.58;101602.41;1867144;75;20158;-40
2021/01/12 05:43:11;;;;;;;;;;;;;;;-2.27;90.57;101602.00;1879616;75;20132;-39
2021/01/12 05:45:41;;;;;;;;;;;;;;;-2.27;90.58;101596.86;1876257;75;20161;-39
2021/01/12 05:48:10;;;;;;;;;;;;;;;-2.27;90.61;101606.25;1882311;75;20180;-41
2021/01/12 05:50:39;;;;;;;;;;;;;;;-2.26;90.56;101614.05;1871690;75;20288;-39
2021/01/12 05:53:09;;;;;;;;;;;;;;;-2.27;90.41;101612.67;1867702;75;20464;-42
2021/01/12 05:55:41;;;;;;;;;;;;;;;-2.26;90.45;101610.19;1819562;78;20184;-42
2021/01/12 05:58:18;;;;;;;;;;;;;;;-2.27;90.41;101602.00;1810559;78;20135;-40
2021/01/12 06:00:48;;;;;;;;;;;;;;;-2.27;90.35;101602.00;1784924;77;20176;-39
2021/01/12 06:03:16;;;;;;;;;;;;;;;-2.25;90.17;101600.80;1824120;78;20204;-40
2021/01/12 06:05:46;;;;;;;;;;;;;;;-2.25;90.07;101603.37;1839192;77;20131;-42
2021/01/12 06:08:14;;;;;;;;;;;;;;;-2.25;89.96;101606.82;1838570;77;20488;-43
2021/01/12 06:10:44;;;;;;;;;;;;;;;-2.25;89.72;101614.52;1798685;78;20224;-46
2021/01/12 06:13:18;;;;;;;;;;;;;;;-2.25;89.48;101620.06;1830197;77;20172;-41
2021/01/12 06:15:47;;;;;;;;;;;;;;;-2.24;89.33;101625.28;1801227;78;20285;-42
2021/01/12 06:18:16;;;;;;;;;;;;;;;-2.22;89.21;101628.78;1802767;78;20444;-40
2021/01/12 06:20:47;;;;;;;;;;;;;;;-2.20;89.11;101627.18;1825271;78;20137;-41
2021/01/12 06:26:53;;;;;;;;;;;;;;;-2.10;89.00;101638.81;1894965;74;20178;-39
2021/01/12 06:29:20;;;;;;;;;;;;;;;-2.13;88.82;101651.48;1868094;75;20400;-41
2021/01/12 06:31:51;;;;;;;;;;;;;;;-2.10;88.71;101668.34;1875118;75;20279;-41
2021/01/12 06:34:20;;;;;;;;;;;;;;;-2.08;88.72;101674.02;1881894;75;20193;-43
2021/01/12 06:36:52;;;;;;;;;;;;;;;-2.05;88.70;101678.44;1868355;75;20213;-40
2021/01/12 06:39:21;;;;;;;;;;;;;;;-2.04;88.64;101669.53;1877182;75;20195;-44
2021/01/12 06:41:49;;;;;;;;;;;;;;;-2.03;88.61;101667.41;1876329;75;20156;-42
2021/01/12 06:44:25;;;;;;;;;;;;;;;-1.98;88.60;101662.92;1868994;75;20207;-40
2021/01/12 06:46:54;;;;;;;;;;;;;;;-1.97;88.52;101660.84;1870586;75;20187;-41
2021/01/12 06:49:27;;;;;;;;;;;;;;;-1.98;88.44;101653.53;1876666;75;20206;-40
2021/01/12 06:52:07;;;;;;;;;;;;;;;-1.98;88.42;101649.67;1788652;78;20484;-42
2021/01/12 06:54:39;;;;;;;;;;;;;;;-1.93;88.45;101656.31;1775146;78;20196;-44
2021/01/12 06:57:14;;;;;;;;;;;;;;;-1.92;88.43;101650.37;1747659;78;20151;-41
2021/01/12 06:59:45;;;;;;;;;;;;;;;-1.91;88.37;101653.03;1776654;78;20282;-41
2021/01/12 07:02:22;;;;;;;;;;;;;;;-1.91;88.30;101651.73;1834051;77;20196;-40
2021/01/12 07:05:08;;;;;;;;;;;;;;;-1.89;88.32;101647.94;1836057;77;20186;-42
2021/01/12 07:07:47;;;;;;;;;;;;;;;-1.85;88.44;101651.16;1833289;77;20170;-41
2021/01/12 07:10:20;;;;;;;;;;;;;;;-1.84;88.37;101647.37;1835856;77;20277;-40
2021/01/12 07:12:50;;;;;;;;;;;;;;;-1.83;88.15;101647.83;1835898;77;21168;-43
2021/01/12 07:15:20;;;;;;;;;;;;;;;-1.82;88.05;101633.30;1811584;78;20391;-42
2021/01/12 07:17:49;;;;;;;;;;;;;;;-1.80;88.05;101630.00;1832996;77;20171;-41
2021/01/12 07:20:21;;;;;;;;;;;;;;;-1.76;88.14;101637.03;1833827;77;20202;-43
2021/01/12 07:22:57;;;;;;;;;;;;;;;-1.74;88.03;101643.55;1839618;77;20134;-42
2021/01/12 07:25:37;;;;;;;;;;;;;;;-1.73;87.84;101647.48;1836217;77;20168;-41
2021/01/12 07:28:15;;;;;;;;;;;;;;;-1.70;87.66;101648.89;1797096;77;20306;-42
2021/01/12 07:30:46;;;;;;;;;;;;;;;-1.67;87.53;101647.77;1809490;77;20185;-42
2021/01/12 07:33:21;;;;;;;;;;;;;;;-1.64;87.27;101656.01;1813527;78;20145;-41
2021/01/12 07:35:53;;;;;;;;;;;;;;;-1.64;87.18;101656.89;1821586;77;20186;-42
2021/01/12 07:38:22;;;;;;;;;;;;;;;-1.61;87.05;101660.03;1815344;78;20189;-42
2021/01/12 07:40:50;;;;;;;;;;;;;;;-1.61;86.95;101666.45;1832201;77;20228;-42
2021/01/12 07:43:24;;;;;;;;;;;;;;;-1.61;87.00;101667.74;1785361;77;20148;-42
2021/01/12 07:45:53;;;;;;;;;;;;;;;-1.59;87.04;101660.99;1804606;77;20454;-44
2021/01/12 07:48:22;;;;;;;;;;;;;;;-1.56;87.00;101658.55;1815612;78;20365;-42
2021/01/12 07:50:51;;;;;;;;;;;;;;;-1.52;86.87;101660.87;1816481;78;20216;-41
2021/01/12 07:53:19;;;;;;;;;;;;;;;-1.48;86.79;101649.92;1815819;78;20207;-43
2021/01/12 07:55:48;;;;;;;;;;;;;;;-1.46;86.40;101656.91;1825460;77;20200;-42
2021/01/12 07:58:17;;;;;;;;;;;;;;;-1.41;86.17;101658.39;1831513;77;20137;-41
2021/01/12 08:00:47;;;;;;;;;;;;;;;-1.46;85.35;101659.48;1828128;77;20448;-42
2021/01/12 08:03:19;;;;;;;;;;;;;;;-1.49;84.79;101654.58;1815300;78;20184;-42
2021/01/12 08:05:47;;;;;;;;;;;;;;;-1.49;84.49;101657.15;1818203;78;20187;-41
2021/01/12 08:08:16;;;;;;;;;;;;;;;-1.43;84.26;101663.46;1822787;78;20135;-41
2021/01/12 08:10:43;;;;;;;;;;;;;;;-1.38;84.00;101659.41;1820287;78;20265;-43
2021/01/12 08:13:12;;;;;;;;;;;;;;;-1.32;83.93;101653.70;1815486;78;20198;-42
2021/01/12 08:15:43;;;;;;;;;;;;;;;-1.28;83.84;101652.61;1836130;77;20152;-43
2021/01/12 08:18:19;;;;;;;;;;;;;;;-1.23;83.57;101650.23;1835491;77;20208;-41
2021/01/12 08:20:49;;;;;;;;;;;;;;;-1.22;83.21;101643.00;1834420;77;20177;-44
2021/01/12 08:23:17;;;;;;;;;;;;;;;-1.19;83.03;101634.56;1841769;77;20194;-42
2021/01/12 08:25:45;;;;;;;;;;;;;;;-1.21;82.74;101636.65;1830908;77;20293;-44
2021/01/12 08:28:13;;;;;;;;;;;;;;;-1.18;82.61;101647.90;1832138;77;20139;-41
2021/01/12 08:30:42;;;;;;;;;;;;;;;-1.20;82.50;101629.81;1824313;77;20253;-42
2021/01/12 08:33:27;;;;;;;;;;;;;;;-1.19;82.48;101631.58;1801296;77;20196;-42
2021/01/12 08:36:20;;;;;;;;;;;;;;;-1.15;82.69;101636.05;1781459;78;20136;-43
2021/01/12 08:38:49;;;;;;;;;;;;;;;-1.10;82.76;101637.13;1828016;78;20235;-44
2021/01/12 08:41:18;;;;;;;;;;;;;;;-1.05;82.73;101627.06;1822591;78;20259;-41
2021/01/12 08:43:46;;;;;;;;;;;;;;;-1.03;82.67;101619.86;1828661;77;20180;-41
2021/01/12 08:46:14;;;;;;;;;;;;;;;-1.01;82.69;101609.23;1794803;77;20155;-41
2021/01/12 08:48:48;;;;;;;;;;;;;;;-0.98;82.59;101611.94;1774642;77;20160;-47
2021/01/12 08:51:19;;;;;;;;;;;;;;;-0.95;82.57;101599.22;1826629;78;20125;-42
2021/01/12 08:53:46;;;;;;;;;;;;;;;-0.92;82.42;101594.19;1822313;78;20294;-43
2021/01/12 08:56:14;;;;;;;;;;;;;;;-0.91;82.34;101588.63;1822089;78;20269;-42
2021/01/12 08:58:43;;;;;;;;;;;;;;;-0.87;82.16;101582.42;1803098;78;20301;-41
2021/01/12 09:01:13;;;;;;;;;;;;;;;-0.82;82.05;101583.90;1805190;78;20179;-42
2021/01/12 09:03:43;;;;;;;;;;;;;;;;;;1800638;78;20333;-44
2021/01/12 09:06:18;;;;;;;;;;;;;;;-0.68;81.63;101562.61;1804156;77;20201;-43
2021/01/12 09:08:48;;;;;;;;;;;;;;;-0.60;81.28;101573.72;1784432;78;20197;-43
2021/01/12 09:11:19;;;;;;;;;;;;;;;-0.54;80.91;101555.94;1777579;77;20539;-45
2021/01/12 09:13:47;;;;;;;;;;;;;;;-0.46;80.58;101573.00;1805583;78;20208;-42
2021/01/12 09:16:19;;;;;;;;;;;;;;;-0.40;80.02;101550.08;1830420;77;20195;-44
2021/01/12 09:18:48;;;;;;;;;;;;;;;-0.34;79.52;101549.44;1832084;77;20186;-44
2021/01/12 09:21:15;;;;;;;;;;;;;;;-0.32;78.90;101527.17;1809861;78;20208;-42
2021/01/12 09:23:44;;;;;;;;;;;;;;;-0.26;78.67;101554.06;1792551;77;20171;-43
2021/01/12 09:26:13;;;;;;;;;;;;;;;-0.18;78.08;101561.70;1828654;77;20221;-43
2021/01/12 09:28:43;;;;;;;;;;;;;;;-0.11;76.76;101548.25;1776855;78;20460;-43
2021/01/12 09:31:17;;;;;;;;;;;;;;;-0.09;75.95;101553.06;1831209;77;20307;-44
2021/01/12 09:33:50;;;;;;;;;;;;;;;-0.02;75.54;101558.05;1817444;77;20399;-45
2021/01/12 09:36:23;;;;;;;;;;;;;;;0.04;74.97;101549.27;1811528;77;20186;-43
2021/01/12 09:38:52;;;;;;;;;;;;;;;0.09;74.12;101536.55;1773414;79;20169;-42
2021/01/12 09:41:27;;;;;;;;;;;;;;;0.12;73.27;101542.72;1823796;77;20196;-42
2021/01/12 09:43:56;;;;;;;;;;;;;;;0.20;72.67;101525.83;1825281;77;20231;-44
2021/01/12 09:46:25;;;;;;;;;;;;;;;0.21;71.19;101506.08;1812511;77;20275;-43
2021/01/12 09:48:56;;;;;;;;;;;;;;;0.21;70.36;101517.68;1825718;77;20185;-47
2021/01/12 09:51:27;;;;;;;;;;;;;;;0.22;70.20;101530.64;1826566;77;20222;-48
2021/01/12 09:53:57;;;;;;;;;;;;;;;0.25;69.63;101529.89;1795977;77;20293;-44
2021/01/12 09:56:25;;;;;;;;;;;;;;;0.25;69.27;101520.45;1834409;77;20182;-44
2021/01/12 09:58:53;;;;;;;;;;;;;;;0.25;68.97;101520.86;1823716;77;20205;-43
2021/01/12 10:01:21;;;;;;;;;;;;;;;0.27;68.82;101513.64;1821792;77;20197;-43
2021/01/12 10:03:51;;;;;;;;;;;;;;;0.26;68.57;101504.58;1824937;77;20191;-44
2021/01/12 10:06:19;;;;;;;;;;;;;;;0.18;68.45;101499.53;1825388;77;20307;-45
2021/01/12 10:08:47;;;;;;;;;;;;;;;0.16;68.40;101489.56;1820433;77;20423;-43
2021/01/12 10:11:15;;;;;;;;;;;;;;;0.13;68.26;101481.73;1820572;77;20271;-45
2021/01/12 10:13:46;;;;;;;;;;;;;;;0.12;68.20;101481.26;1810351;78;20225;-42
2021/01/12 10:16:21;;;;;;;;;;;;;;;0.08;68.18;101480.24;1831579;77;20493;-44
2021/01/12 10:18:50;;;;;;;;;;;;;;;0.08;68.33;101477.67;1836230;77;20176;-45
2021/01/12 10:21:18;;;;;;;;;;;;;;;0.04;67.62;101469.77;1830474;77;20189;-44
2021/01/12 10:26:54;;;;;;;;;;;;;;;-0.17;66.86;101472.39;1890561;74;20189;-44
2021/01/12 10:29:22;;;;;;;;;;;;;;;-0.31;67.09;101470.56;1859635;75;20247;-44
2021/01/12 10:31:51;;;;;;;;;;;;;;;-0.38;67.41;101464.70;1868433;75;20186;-43
2021/01/12 10:34:20;;;;;;;;;;;;;;;-0.43;67.69;101479.98;1870054;75;20214;-43
2021/01/12 10:36:51;;;;;;;;;;;;;;;-0.45;68.04;101484.59;1870844;75;20203;-44
2021/01/12 10:39:20;;;;;;;;;;;;;;;-0.51;68.03;101494.64;1871590;75;20298;-43
2021/01/12 10:42:06;;;;;;;;;;;;;;;-0.55;67.84;101497.92;1808563;75;20400;-42
2021/01/12 10:44:36;;;;;;;;;;;;;;;-0.57;68.15;101493.99;1867364;75;20182;-58
2021/01/12 10:47:10;;;;;;;;;;;;;;;-0.58;68.40;101497.78;1822342;75;20196;-42
2021/01/12 10:50:09;;;;;;;;;;;;;;;-0.59;68.35;101507.64;1800088;75;20277;-43
2021/01/12 10:52:48;;;;;;;;;;;;;;;-0.61;68.37;101494.70;1830795;75;20261;-44
2021/01/12 10:55:25;;;;;;;;;;;;;;;-0.63;68.36;101475.72;1829122;77;20201;-45
2021/01/12 10:58:01;;;;;;;;;;;;;;;-0.61;68.55;101468.06;1847275;75;20141;-43
2021/01/12 11:00:44;;;;;;;;;;;;;;;-0.59;68.77;101464.72;1836066;77;20185;-42
2021/01/12 11:03:15;;;;;;;;;;;;;;;-0.56;68.94;101454.55;1870213;75;20174;-43
2021/01/12 11:05:51;;;;;;;;;;;;;;;-0.55;68.70;101447.71;1819665;75;20270;-44
2021/01/12 11:08:26;;;;;;;;;;;;;;;-0.58;68.25;101448.45;1867938;75;20384;-44
2021/01/12 11:10:52;;;;;;;;;;;;;;;-0.66;68.21;101449.87;1871045;75;20209;-43
2021/01/12 11:13:21;;;;;;;;;;;;;;;-0.68;68.56;101450.20;1872167;75;20232;-44
2021/01/12 11:15:49;;;;;;;;;;;;;;;-0.70;68.78;101440.23;1868510;75;20170;-43
2021/01/12 11:18:17;;;;;;;;;;;;;;;-0.67;68.97;101444.24;1880656;75;20167;-43
2021/01/12 11:20:49;;;;;;;;;;;;;;;-0.64;69.15;101435.34;1874743;75;20215;-41
2021/01/12 11:23:17;;;;;;;;;;;;;;;-0.59;69.28;101427.81;1871449;75;20439;-41
2021/01/12 11:25:46;;;;;;;;;;;;;;;-0.54;69.12;101425.01;1871176;75;20205;-42
2021/01/12 11:28:16;;;;;;;;;;;;;;;-0.50;69.27;101423.01;1869903;75;20511;-54
2021/01/12 11:30:47;;;;;;;;;;;;;;;-0.46;69.45;101421.89;1849908;75;20445;-46
2021/01/12 11:33:15;;;;;;;;;;;;;;;-0.42;69.06;101420.33;1872139;75;20132;-43
2021/01/12 11:35:45;;;;;;;;;;;;;;;-0.48;68.80;101407.22;1870090;75;20176;-44
2021/01/12 11:38:13;;;;;;;;;;;;;;;-0.54;68.68;101404.00;1870824;75;20161;-44
2021/01/12 11:40:41;;;;;;;;;;;;;;;-0.61;68.64;101412.30;1872804;75;20848;-44
2021/01/12 11:43:08;;;;;;;;;;;;;;;-0.64;68.76;101417.31;1870248;75;20449;-43
2021/01/12 11:45:37;;;;;;;;;;;;;;;-0.63;68.96;101421.65;1868200;75;20216;-43
2021/01/12 11:48:06;;;;;;;;;;;;;;;-0.62;69.02;101428.56;1871247;75;20361;-42
2021/01/12 11:50:34;;;;;;;;;;;;;;;-0.62;69.16;101427.27;1874914;75;20203;-46
2021/01/12 11:53:03;;;;;;;;;;;;;;;-0.59;69.11;101436.39;1843769;75;20158;-44
2021/01/12 11:55:32;;;;;;;;;;;;;;;-0.60;68.75;101423.48;1858974;75;20216;-43
2021/01/12 11:58:01;;;;;;;;;;;;;;;-0.61;68.80;101430.33;1873108;75;20293;-43
2021/01/12 12:00:29;;;;;;;;;;;;;;;-0.62;68.09;101444.01;1872185;75;20192;-43
2021/01/12 12:02:56;;;;;;;;;;;;;;;-0.66;68.03;101441.27;1872685;75;20473;-45
2021/01/12 12:05:29;;;;;;;;;;;;;;;-0.67;68.13;101437.80;1867094;75;20138;-44
2021/01/12 12:08:08;;;;;;;;;;;;;;;-0.67;68.25;101432.66;1855136;75;20170;-44
2021/01/12 12:10:44;;;;;;;;;;;;;;;-0.66;68.60;101426.69;1820397;78;20219;-43
2021/01/12 12:13:21;;;;;;;;;;;;;;;-0.67;68.73;101432.66;1786090;78;20490;-43
2021/01/12 12:16:08;;;;;;;;;;;;;;;-0.68;68.77;101427.44;1780805;78;20196;-43
2021/01/12 12:18:42;;;;;;;;;;;;;;;-0.73;68.65;101415.68;1754635;78;20266;-41
2021/01/12 12:21:13;;;;;;;;;;;;;;;-0.75;68.66;101411.27;1810776;78;20288;-44
2021/01/12 12:23:41;;;;;;;;;;;;;;;-0.80;68.79;101414.95;1812232;78;20177;-44
2021/01/12 12:26:11;;;;;;;;;;;;;;;-0.81;69.04;101412.79;1830323;77;20566;-45
2021/01/12 12:28:41;;;;;;;;;;;;;;;-0.82;69.18;101424.30;1833859;77;20149;-44
2021/01/12 12:31:09;;;;;;;;;;;;;;;-0.83;69.42;101424.71;1831193;77;20260;-46
2021/01/12 12:33:38;;;;;;;;;;;;;;;-0.86;69.55;101423.31;1830686;77;20170;-44
2021/01/12 12:36:08;;;;;;;;;;;;;;;-0.87;69.80;101420.67;1808914;78;20460;-44
2021/01/12 12:38:40;;;;;;;;;;;;;;;-0.88;70.08;101409.90;1817043;78;20194;-44
2021/01/12 12:41:11;;;;;;;;;;;;;;;-0.92;70.10;101401.59;1818186;77;20206;-44
2021/01/12 12:43:40;;;;;;;;;;;;;;;-0.91;70.39;101405.90;1810836;78;20216;-44
2021/01/12 12:46:09;;;;;;;;;;;;;;;-0.90;70.64;101397.37;1808822;78;20209;-44
2021/01/12 12:48:43;;;;;;;;;;;;;;;-0.90;70.83;101397.37;1784549;78;20228;-44
2021/01/12 12:51:15;;;;;;;;;;;;;;;-0.91;71.07;101395.20;1779700;78;20156;-44
2021/01/12 12:53:46;;;;;;;;;;;;;;;-0.90;71.09;101393.10;1808265;78;20358;-43
2021/01/12 12:56:14;;;;;;;;;;;;;;;-0.88;71.11;101391.88;1806330;78;20201;-41
2021/01/12 12:58:44;;;;;;;;;;;;;;;-0.90;71.02;101402.11;1810418;78;20196;-42
2021/01/12 13:01:13;;;;;;;;;;;;;;;-0.93;71.01;101395.57;1809470;78;20308;-42
2021/01/12 13:03:45;;;;;;;;;;;;;;;-0.93;70.85;101384.39;1808251;78;20192;-45